createdAt,value
2023-05-21T00:00:49.256Z,203.84
2023-05-21T00:01:49.261Z,202.46
2023-05-21T00:02:49.455Z,201.84
2023-05-21T00:03:49.438Z,203.21
2023-05-21T00:04:49.217Z,202.84
2023-05-21T00:05:49.280Z,201.22
2023-05-21T00:06:49.187Z,199.63
2023-05-21T00:07:49.158Z,200.85
2023-05-21T00:08:47.236Z,199.51
2023-05-21T00:09:49.143Z,199.75
2023-05-21T00:10:49.148Z,199.51
2023-05-21T00:11:49.124Z,200.60
2023-05-21T00:12:49.101Z,199.75
2023-05-21T00:13:49.090Z,199.51
2023-05-21T00:14:49.085Z,199.51
2023-05-21T00:15:49.067Z,199.75
2023-05-21T00:16:49.127Z,199.87
2023-05-21T00:17:49.102Z,200.60
2023-05-21T00:18:49.114Z,200.11
2023-05-21T00:19:49.023Z,199.99
2023-05-21T00:20:48.987Z,198.78
2023-05-21T00:21:49.009Z,199.26
2023-05-21T00:22:48.963Z,199.63
2023-05-21T00:23:48.974Z,197.82
2023-05-21T00:24:48.947Z,199.51
2023-05-21T00:25:48.931Z,198.06
2023-05-21T00:26:48.915Z,198.66
2023-05-21T00:27:48.915Z,197.82
2023-05-21T00:28:48.879Z,197.11
2023-05-21T00:29:48.877Z,197.58
2023-05-21T00:30:48.859Z,195.12
2023-05-21T00:31:49.014Z,196.16
2023-05-21T00:32:48.828Z,197.46
2023-05-21T00:33:48.836Z,196.87
2023-05-21T00:34:48.815Z,196.87
2023-05-21T00:35:48.781Z,195.70
2023-05-21T00:36:48.788Z,195.70
2023-05-21T00:37:48.785Z,196.40
2023-05-21T00:38:48.788Z,195.35
2023-05-21T00:39:48.728Z,195.46
2023-05-21T00:40:48.726Z,196.52
2023-05-21T00:41:48.757Z,195.00
2023-05-21T00:42:48.680Z,196.75
2023-05-21T00:43:48.733Z,195.35
2023-05-21T00:44:48.677Z,195.46
2023-05-21T00:45:48.768Z,195.93
2023-05-21T00:46:48.655Z,196.16
2023-05-21T00:47:48.699Z,195.93
2023-05-21T00:48:48.611Z,196.05
2023-05-21T00:49:48.601Z,195.81
2023-05-21T00:50:48.577Z,195.00
2023-05-21T00:51:48.568Z,194.65
2023-05-21T00:52:48.568Z,194.65
2023-05-21T00:53:48.553Z,196.05
2023-05-21T00:54:48.536Z,195.81
2023-05-21T00:55:48.502Z,194.54
2023-05-21T00:56:48.482Z,196.05
2023-05-21T00:57:48.491Z,195.46
2023-05-21T00:58:48.461Z,195.23
2023-05-21T00:59:48.456Z,194.31
2023-05-21T01:00:48.452Z,194.54
2023-05-21T01:01:48.501Z,194.31
2023-05-21T01:02:48.488Z,195.46
2023-05-21T01:03:48.514Z,194.77
2023-05-21T01:04:48.401Z,195.70
2023-05-21T01:05:48.369Z,195.35
2023-05-21T01:06:48.368Z,195.23
2023-05-21T01:07:48.369Z,194.54
2023-05-21T01:08:48.325Z,194.19
2023-05-21T01:09:48.315Z,193.73
2023-05-21T01:10:48.293Z,194.65
2023-05-21T01:11:48.301Z,194.77
2023-05-21T01:12:48.253Z,195.12
2023-05-21T01:13:48.262Z,195.46
2023-05-21T01:14:48.241Z,193.62
2023-05-21T01:15:48.223Z,193.62
2023-05-21T01:16:48.353Z,193.28
2023-05-21T01:17:48.273Z,193.96
2023-05-21T01:18:48.264Z,193.62
2023-05-21T01:19:48.257Z,193.05
2023-05-21T01:20:48.210Z,194.88
2023-05-21T01:21:48.157Z,194.42
2023-05-21T01:22:48.136Z,193.62
2023-05-21T01:23:48.121Z,194.08
2023-05-21T01:24:48.116Z,194.31
2023-05-21T01:25:48.608Z,192.93
2023-05-21T01:26:48.089Z,193.28
2023-05-21T01:27:48.064Z,193.05
2023-05-21T01:28:48.072Z,194.31
2023-05-21T01:29:48.041Z,193.96
2023-05-21T01:30:46.395Z,194.54
2023-05-21T01:31:48.027Z,194.77
2023-05-21T01:32:48.124Z,193.28
2023-05-21T01:33:48.055Z,193.85
2023-05-21T01:34:47.964Z,194.19
2023-05-21T01:35:47.971Z,193.85
2023-05-21T01:36:47.937Z,194.65
2023-05-21T01:37:47.940Z,193.28
2023-05-21T01:38:47.909Z,193.16
2023-05-21T01:39:47.915Z,193.39
2023-05-21T01:40:47.901Z,193.39
2023-05-21T01:41:47.876Z,192.60
2023-05-21T01:42:47.875Z,193.62
2023-05-21T01:43:47.850Z,192.26
2023-05-21T01:44:47.845Z,192.60
2023-05-21T01:45:47.832Z,191.70
2023-05-21T01:46:47.413Z,192.26
2023-05-21T01:47:47.861Z,191.47
2023-05-21T01:48:47.780Z,191.03
2023-05-21T01:49:47.786Z,191.03
2023-05-21T01:50:47.767Z,190.91
2023-05-21T01:51:47.731Z,189.37
2023-05-21T01:52:47.739Z,189.37
2023-05-21T01:53:47.711Z,188.50
2023-05-21T01:54:47.744Z,187.85
2023-05-21T01:55:47.684Z,188.94
2023-05-21T01:56:47.672Z,187.64
2023-05-21T01:57:47.661Z,187.75
2023-05-21T01:58:47.626Z,187.43
2023-05-21T01:59:47.644Z,186.68
2023-05-21T02:00:47.610Z,187.43
2023-05-21T02:01:47.627Z,185.73
2023-05-21T02:02:47.699Z,185.62
2023-05-21T02:03:47.680Z,185.41
2023-05-21T02:04:47.575Z,185.20
2023-05-21T02:05:47.563Z,186.24
2023-05-21T02:06:47.025Z,186.45
2023-05-21T02:07:47.525Z,185.42
2023-05-21T02:08:47.007Z,186.04
2023-05-21T02:09:47.489Z,185.62
2023-05-21T02:10:47.485Z,184.60
2023-05-21T02:11:47.454Z,183.38
2023-05-21T02:12:47.480Z,185.01
2023-05-21T02:13:47.452Z,183.38
2023-05-21T02:14:47.422Z,183.38
2023-05-21T02:15:47.400Z,183.99
2023-05-21T02:16:47.436Z,181.78
2023-05-21T02:17:47.410Z,181.39
2023-05-21T02:18:47.416Z,180.60
2023-05-21T02:19:47.371Z,180.60
2023-05-21T02:20:47.333Z,179.82
2023-05-21T02:21:47.333Z,179.82
2023-05-21T02:22:47.345Z,178.86
2023-05-21T02:23:47.308Z,178.67
2023-05-21T02:24:47.282Z,179.43
2023-05-21T02:25:47.292Z,177.34
2023-05-21T02:26:47.256Z,177.15
2023-05-21T02:27:47.260Z,178.67
2023-05-21T02:28:47.232Z,176.21
2023-05-21T02:29:47.287Z,176.03
2023-05-21T02:30:47.190Z,175.29
2023-05-21T02:31:47.201Z,175.84
2023-05-21T02:32:47.171Z,174.01
2023-05-21T02:33:47.172Z,172.57
2023-05-21T02:34:47.160Z,174.01
2023-05-21T02:35:47.128Z,173.47
2023-05-21T02:36:47.140Z,172.75
2023-05-21T02:37:47.163Z,172.57
2023-05-21T02:38:47.081Z,171.33
2023-05-21T02:39:47.079Z,170.46
2023-05-21T02:40:47.066Z,170.80
2023-05-21T02:41:47.057Z,168.90
2023-05-21T02:42:47.052Z,169.24
2023-05-21T02:43:47.038Z,169.42
2023-05-21T02:44:47.017Z,169.24
2023-05-21T02:45:47.041Z,167.88
2023-05-21T02:46:46.997Z,168.22
2023-05-21T02:47:47.023Z,168.22
2023-05-21T02:48:46.962Z,168.05
2023-05-21T02:49:46.943Z,167.04
2023-05-21T02:50:46.922Z,165.71
2023-05-21T02:51:46.923Z,166.04
2023-05-21T02:52:46.908Z,166.04
2023-05-21T02:53:46.897Z,165.39
2023-05-21T02:54:46.873Z,163.44
2023-05-21T02:55:46.860Z,164.25
2023-05-21T02:56:46.864Z,162.96
2023-05-21T02:57:46.841Z,162.33
2023-05-21T02:58:46.815Z,162.49
2023-05-21T02:59:46.855Z,161.54
2023-05-21T03:00:46.793Z,160.61
2023-05-21T03:01:46.835Z,160.30
2023-05-21T03:02:46.808Z,160.30
2023-05-21T03:03:46.789Z,159.84
2023-05-21T03:04:46.794Z,159.54
2023-05-21T03:05:46.731Z,158.18
2023-05-21T03:06:46.706Z,158.48
2023-05-21T03:07:46.686Z,156.99
2023-05-21T03:08:46.681Z,156.40
2023-05-21T03:09:46.685Z,156.84
2023-05-21T03:10:46.660Z,156.25
2023-05-21T03:11:46.643Z,156.10
2023-05-21T03:12:46.618Z,155.09
2023-05-21T03:13:46.624Z,154.51
2023-05-21T03:14:46.653Z,155.81
2023-05-21T03:15:46.596Z,155.81
2023-05-21T03:16:46.589Z,154.66
2023-05-21T03:17:46.588Z,154.94
2023-05-21T03:18:46.548Z,153.66
2023-05-21T03:19:46.536Z,153.80
2023-05-21T03:20:46.524Z,153.24
2023-05-21T03:21:46.504Z,153.10
2023-05-21T03:22:46.512Z,153.38
2023-05-21T03:23:46.481Z,152.54
2023-05-21T03:24:46.479Z,152.68
2023-05-21T03:25:46.436Z,153.10
2023-05-21T03:26:46.424Z,151.02
2023-05-21T03:27:46.408Z,151.71
2023-05-21T03:28:46.417Z,150.88
2023-05-21T03:29:46.397Z,151.15
2023-05-21T03:30:46.528Z,151.02
2023-05-21T03:31:46.418Z,151.98
2023-05-21T03:32:46.414Z,151.15
2023-05-21T03:33:46.338Z,151.71
2023-05-21T03:34:46.327Z,151.71
2023-05-21T03:35:46.304Z,151.02
2023-05-21T03:36:46.282Z,150.61
2023-05-21T03:37:46.303Z,151.02
2023-05-21T03:38:46.255Z,151.29
2023-05-21T03:39:46.272Z,150.88
2023-05-21T03:40:46.238Z,152.26
2023-05-21T03:41:46.226Z,151.02
2023-05-21T03:42:46.218Z,150.34
2023-05-21T03:43:46.206Z,151.84
2023-05-21T03:44:46.235Z,151.43
2023-05-21T03:45:46.230Z,150.20
2023-05-21T03:46:46.153Z,150.47
2023-05-21T03:47:46.209Z,150.34
2023-05-21T03:48:46.172Z,151.57
2023-05-21T03:49:46.126Z,150.61
2023-05-21T03:50:46.089Z,150.88
2023-05-21T03:51:46.085Z,150.34
2023-05-21T03:52:46.106Z,151.57
2023-05-21T03:53:46.064Z,149.93
2023-05-21T03:54:46.046Z,151.57
2023-05-21T03:55:46.038Z,150.61
2023-05-21T03:56:46.027Z,150.34
2023-05-21T03:57:46.025Z,151.15
2023-05-21T03:58:46.002Z,151.29
2023-05-21T03:59:45.989Z,150.47
2023-05-21T04:00:45.973Z,151.15
2023-05-21T04:01:45.969Z,151.29
2023-05-21T04:02:46.015Z,151.29
2023-05-21T04:03:46.019Z,151.98
2023-05-21T04:04:46.005Z,151.15
2023-05-21T04:05:45.912Z,151.43
2023-05-21T04:06:45.901Z,150.88
2023-05-21T04:07:45.878Z,150.88
2023-05-21T04:08:45.860Z,151.43
2023-05-21T04:09:45.826Z,149.93
2023-05-21T04:10:45.852Z,150.47
2023-05-21T04:11:45.817Z,149.40
2023-05-21T04:12:45.806Z,151.71
2023-05-21T04:13:45.801Z,151.29
2023-05-21T04:14:45.770Z,150.47
2023-05-21T04:15:45.771Z,150.07
2023-05-21T04:16:45.729Z,150.88
2023-05-21T04:17:45.780Z,150.88
2023-05-21T04:18:45.828Z,150.88
2023-05-21T04:19:45.697Z,151.57
2023-05-21T04:20:45.699Z,150.74
2023-05-21T04:21:45.684Z,151.84
2023-05-21T04:22:45.669Z,151.84
2023-05-21T04:23:45.648Z,151.57
2023-05-21T04:24:45.632Z,151.29
2023-05-21T04:25:45.628Z,151.15
2023-05-21T04:26:45.604Z,152.26
2023-05-21T04:27:45.589Z,151.71
2023-05-21T04:28:45.590Z,150.88
2023-05-21T04:29:45.067Z,151.43
2023-05-21T04:30:45.541Z,152.12
2023-05-21T04:31:45.577Z,152.12
2023-05-21T04:32:45.532Z,151.84
2023-05-21T04:33:45.503Z,152.26
2023-05-21T04:34:45.503Z,154.37
2023-05-21T04:35:45.507Z,153.66
2023-05-21T04:36:45.475Z,154.23
2023-05-21T04:37:45.462Z,154.37
2023-05-21T04:38:45.432Z,155.81
2023-05-21T04:39:45.421Z,154.51
2023-05-21T04:40:45.426Z,155.23
2023-05-21T04:41:45.401Z,156.10
2023-05-21T04:42:45.380Z,155.38
2023-05-21T04:43:45.370Z,155.38
2023-05-21T04:44:45.379Z,157.43
2023-05-21T04:45:45.362Z,158.63
2023-05-21T04:46:45.381Z,158.03
2023-05-21T04:47:45.366Z,158.78
2023-05-21T04:48:45.305Z,159.23
2023-05-21T04:49:45.281Z,159.99
2023-05-21T04:50:45.300Z,159.99
2023-05-21T04:51:45.281Z,160.30
2023-05-21T04:52:45.249Z,160.61
2023-05-21T04:53:45.251Z,160.92
2023-05-21T04:54:45.265Z,160.92
2023-05-21T04:55:43.501Z,160.61
2023-05-21T04:56:45.211Z,160.61
2023-05-21T04:57:45.196Z,161.39
2023-05-21T04:58:45.174Z,161.70
2023-05-21T04:59:45.194Z,161.54
2023-05-21T05:00:45.689Z,161.86
2023-05-21T05:01:45.125Z,161.70
2023-05-21T05:02:45.207Z,162.96
2023-05-21T05:03:45.141Z,162.96
2023-05-21T05:04:45.103Z,164.09
2023-05-21T05:05:45.066Z,164.25
2023-05-21T05:06:45.086Z,163.44
2023-05-21T05:07:45.045Z,165.22
2023-05-21T05:08:45.027Z,165.39
2023-05-21T05:09:45.039Z,166.04
2023-05-21T05:10:45.014Z,166.88
2023-05-21T05:11:44.995Z,167.88
2023-05-21T05:12:45.000Z,169.24
2023-05-21T05:13:44.989Z,168.22
2023-05-21T05:14:44.960Z,168.39
2023-05-21T05:15:45.535Z,168.39
2023-05-21T05:16:44.975Z,169.24
2023-05-21T05:17:44.957Z,168.56
2023-05-21T05:18:44.956Z,168.56
2023-05-21T05:19:44.879Z,170.11
2023-05-21T05:20:44.881Z,170.63
2023-05-21T05:21:44.906Z,171.15
2023-05-21T05:22:44.841Z,171.15
2023-05-21T05:23:44.850Z,171.68
2023-05-21T05:24:44.816Z,172.04
2023-05-21T05:25:44.799Z,172.21
2023-05-21T05:26:44.783Z,173.29
2023-05-21T05:27:44.786Z,172.93
2023-05-21T05:28:44.772Z,173.29
2023-05-21T05:29:44.753Z,174.92
2023-05-21T05:30:44.776Z,176.21
2023-05-21T05:31:44.723Z,175.66
2023-05-21T05:32:44.717Z,175.29
2023-05-21T05:33:44.689Z,175.10
2023-05-21T05:34:44.692Z,175.84
2023-05-21T05:35:44.649Z,176.40
2023-05-21T05:36:44.650Z,175.29
2023-05-21T05:37:44.655Z,175.47
2023-05-21T05:38:44.638Z,175.29
2023-05-21T05:39:44.600Z,175.29
2023-05-21T05:40:44.592Z,175.84
2023-05-21T05:41:44.565Z,175.84
2023-05-21T05:42:44.585Z,177.53
2023-05-21T05:43:44.550Z,177.90
2023-05-21T05:44:44.535Z,177.72
2023-05-21T05:45:44.510Z,177.53
2023-05-21T05:46:44.076Z,176.96
2023-05-21T05:47:44.519Z,178.67
2023-05-21T05:48:44.466Z,179.82
2023-05-21T05:49:44.461Z,179.05
2023-05-21T05:50:44.443Z,179.63
2023-05-21T05:51:44.447Z,180.40
2023-05-21T05:52:43.958Z,180.02
2023-05-21T05:53:43.003Z,180.60
2023-05-21T05:54:44.405Z,180.02
2023-05-21T05:55:44.381Z,180.21
2023-05-21T05:56:44.387Z,181.19
2023-05-21T05:57:45.199Z,180.02
2023-05-21T05:58:43.182Z,180.60
2023-05-21T05:59:42.833Z,180.21
2023-05-21T06:00:44.341Z,180.99
2023-05-21T06:01:43.084Z,181.39
2023-05-21T06:02:44.356Z,181.39
2023-05-21T06:03:44.345Z,181.19
2023-05-21T06:04:44.281Z,181.98
2023-05-21T06:05:44.313Z,182.18
2023-05-21T06:06:44.233Z,182.58
2023-05-21T06:07:44.239Z,182.18
2023-05-21T06:08:44.193Z,182.78
2023-05-21T06:09:44.185Z,183.18
2023-05-21T06:10:44.188Z,183.18
2023-05-21T06:11:44.163Z,183.18
2023-05-21T06:12:44.166Z,183.18
2023-05-21T06:13:44.150Z,182.78
2023-05-21T06:14:45.231Z,183.18
2023-05-21T06:15:44.146Z,183.78
2023-05-21T06:16:44.098Z,183.78
2023-05-21T06:17:44.096Z,185.42
2023-05-21T06:18:44.155Z,182.98
2023-05-21T06:19:44.059Z,183.18
2023-05-21T06:20:44.078Z,183.18
2023-05-21T06:21:44.058Z,182.58
2023-05-21T06:22:44.032Z,182.58
2023-05-21T06:23:43.988Z,182.58
2023-05-21T06:24:43.997Z,182.98
2023-05-21T06:25:43.980Z,183.18
2023-05-21T06:26:43.970Z,182.78
2023-05-21T06:27:43.947Z,182.18
2023-05-21T06:28:43.935Z,182.18
2023-05-21T06:29:43.919Z,182.98
2023-05-21T06:30:43.916Z,181.78
2023-05-21T06:31:43.881Z,181.58
2023-05-21T06:32:43.937Z,180.21
2023-05-21T06:33:43.986Z,180.21
2023-05-21T06:34:43.870Z,181.19
2023-05-21T06:35:43.876Z,181.39
2023-05-21T06:36:43.826Z,182.38
2023-05-21T06:37:43.804Z,179.63
2023-05-21T06:38:43.809Z,180.40
2023-05-21T06:39:43.782Z,179.63
2023-05-21T06:40:43.767Z,179.63
2023-05-21T06:41:43.761Z,178.29
2023-05-21T06:42:43.744Z,179.24
2023-05-21T06:43:43.735Z,179.82
2023-05-21T06:44:43.710Z,180.02
2023-05-21T06:45:43.719Z,178.86
2023-05-21T06:46:43.677Z,178.86
2023-05-21T06:47:43.771Z,178.67
2023-05-21T06:48:43.653Z,180.02
2023-05-21T06:49:43.640Z,178.86
2023-05-21T06:50:43.625Z,180.02
2023-05-21T06:51:43.637Z,181.58
2023-05-21T06:52:43.611Z,181.58
2023-05-21T06:53:43.583Z,181.98
2023-05-21T06:54:43.584Z,183.18
2023-05-21T06:55:41.594Z,184.80
2023-05-21T06:56:43.538Z,183.99
2023-05-21T06:57:43.532Z,183.78
2023-05-21T06:58:43.499Z,181.98
2023-05-21T06:59:43.504Z,183.58
2023-05-21T07:00:43.494Z,184.19
2023-05-21T07:01:43.528Z,185.42
2023-05-21T07:02:43.535Z,184.60
2023-05-21T07:03:43.519Z,185.01
2023-05-21T07:04:43.457Z,184.80
2023-05-21T07:05:43.404Z,185.21
2023-05-21T07:06:43.404Z,185.42
2023-05-21T07:07:43.409Z,185.01
2023-05-21T07:08:43.377Z,185.83
2023-05-21T07:09:43.363Z,186.24
2023-05-21T07:10:43.342Z,186.04
2023-05-21T07:11:43.344Z,185.83
2023-05-21T07:12:43.328Z,185.73
2023-05-21T07:13:43.355Z,185.42
2023-05-21T07:14:43.297Z,187.53
2023-05-21T07:15:43.302Z,188.83
2023-05-21T07:16:43.361Z,189.04
2023-05-21T07:17:43.285Z,188.72
2023-05-21T07:18:43.240Z,191.25
2023-05-21T07:19:43.237Z,190.91
2023-05-21T07:20:43.212Z,191.58
2023-05-21T07:21:43.201Z,191.36
2023-05-21T07:22:43.173Z,192.71
2023-05-21T07:23:43.183Z,192.93
2023-05-21T07:24:43.139Z,194.65
2023-05-21T07:25:43.144Z,195.93
2023-05-21T07:26:43.140Z,197.11
2023-05-21T07:27:43.138Z,197.58
2023-05-21T07:28:43.102Z,198.54
2023-05-21T07:29:43.100Z,198.90
2023-05-21T07:30:43.130Z,200.48
2023-05-21T07:31:43.076Z,201.84
2023-05-21T07:32:43.078Z,201.46
2023-05-21T07:33:43.060Z,199.63
2023-05-21T07:34:43.027Z,201.71
2023-05-21T07:35:43.025Z,202.71
2023-05-21T07:36:42.984Z,201.84
2023-05-21T07:37:43.038Z,203.84
2023-05-21T07:38:42.971Z,203.84
2023-05-21T07:39:42.962Z,203.46
2023-05-21T07:40:42.969Z,203.97
2023-05-21T07:41:42.925Z,203.84
2023-05-21T07:42:42.899Z,204.61
2023-05-21T07:43:42.899Z,202.96
2023-05-21T07:44:42.896Z,204.10
2023-05-21T07:45:42.885Z,202.71
2023-05-21T07:46:42.944Z,201.46
2023-05-21T07:47:42.860Z,202.21
2023-05-21T07:48:42.825Z,201.09
2023-05-21T07:49:42.830Z,200.11
2023-05-21T07:50:42.806Z,199.63
2023-05-21T07:51:42.792Z,200.11
2023-05-21T07:52:42.803Z,201.46
2023-05-21T07:53:42.758Z,201.46
2023-05-21T07:54:42.759Z,202.46
2023-05-21T07:55:42.728Z,203.21
2023-05-21T07:56:42.709Z,203.46
2023-05-21T07:57:42.730Z,203.72
2023-05-21T07:58:42.701Z,203.09
2023-05-21T07:59:42.703Z,204.48
2023-05-21T08:00:42.678Z,205.89
2023-05-21T08:01:42.657Z,205.89
2023-05-21T08:02:42.716Z,206.15
2023-05-21T08:03:42.761Z,206.80
2023-05-21T08:04:42.643Z,206.28
2023-05-21T08:05:42.589Z,207.06
2023-05-21T08:06:42.112Z,206.80
2023-05-21T08:07:42.559Z,208.24
2023-05-21T08:08:42.559Z,209.57
2023-05-21T08:09:42.546Z,210.38
2023-05-21T08:10:42.540Z,210.24
2023-05-21T08:11:42.532Z,209.17
2023-05-21T08:12:42.522Z,209.17
2023-05-21T08:13:42.507Z,209.57
2023-05-21T08:14:42.478Z,211.46
2023-05-21T08:15:40.755Z,211.05
2023-05-21T08:16:42.603Z,210.92
2023-05-21T08:17:42.553Z,210.78
2023-05-21T08:18:42.469Z,210.92
2023-05-21T08:19:42.436Z,208.90
2023-05-21T08:20:42.483Z,209.57
2023-05-21T08:21:42.412Z,209.57
2023-05-21T08:22:40.561Z,210.11
2023-05-21T08:23:42.368Z,210.78
2023-05-21T08:24:42.380Z,211.46
2023-05-21T08:25:42.382Z,212.01
2023-05-21T08:26:45.489Z,212.01
2023-05-21T08:27:41.645Z,211.33
2023-05-21T08:28:42.386Z,212.42
2023-05-21T08:29:42.324Z,212.97
2023-05-21T08:30:42.307Z,215.07
2023-05-21T08:31:42.337Z,215.91
2023-05-21T08:32:42.312Z,216.49
2023-05-21T08:33:42.254Z,214.93
2023-05-21T08:34:42.230Z,215.91
2023-05-21T08:35:42.209Z,215.77
2023-05-21T08:36:41.833Z,216.34
2023-05-21T08:37:42.207Z,215.77
2023-05-21T08:38:42.169Z,215.63
2023-05-21T08:39:42.152Z,216.34
2023-05-21T08:40:42.129Z,216.63
2023-05-21T08:41:42.146Z,217.06
2023-05-21T08:42:42.119Z,217.35
2023-05-21T08:43:42.152Z,218.79
2023-05-21T08:44:42.087Z,218.36
2023-05-21T08:45:42.090Z,217.63
2023-05-21T08:46:42.056Z,217.92
2023-05-21T08:47:42.071Z,218.07
2023-05-21T08:48:42.018Z,218.07
2023-05-21T08:49:42.011Z,220.12
2023-05-21T08:50:42.097Z,219.09
2023-05-21T08:51:42.030Z,219.53
2023-05-21T08:52:41.982Z,218.94
2023-05-21T08:53:41.961Z,220.26
2023-05-21T08:54:41.968Z,219.23
2023-05-21T08:55:41.991Z,220.56
2023-05-21T08:56:41.929Z,221.75
2023-05-21T08:57:41.924Z,223.26
2023-05-21T08:58:41.905Z,222.81
2023-05-21T08:59:41.465Z,222.05
2023-05-21T09:00:41.898Z,223.26
2023-05-21T09:01:40.956Z,224.18
2023-05-21T09:02:41.893Z,225.72
2023-05-21T09:03:41.906Z,224.64
2023-05-21T09:04:41.912Z,227.60
2023-05-21T09:05:41.803Z,227.44
2023-05-21T09:06:41.827Z,228.23
2023-05-21T09:07:41.787Z,229.51
2023-05-21T09:08:40.066Z,231.29
2023-05-21T09:09:41.992Z,231.94
2023-05-21T09:10:41.744Z,232.27
2023-05-21T09:11:41.735Z,231.45
2023-05-21T09:12:41.821Z,233.93
2023-05-21T09:13:41.704Z,233.26
2023-05-21T09:14:41.682Z,231.61
2023-05-21T09:15:41.669Z,232.76
2023-05-21T09:16:41.691Z,231.94
2023-05-21T09:17:41.690Z,231.61
2023-05-21T09:18:39.701Z,231.94
2023-05-21T09:19:41.500Z,234.43
2023-05-21T09:20:41.609Z,234.43
2023-05-21T09:21:41.582Z,236.11
2023-05-21T09:22:41.603Z,237.31
2023-05-21T09:23:41.588Z,234.93
2023-05-21T09:24:41.593Z,235.77
2023-05-21T09:25:41.566Z,235.77
2023-05-21T09:26:41.641Z,234.09
2023-05-21T09:27:41.577Z,235.44
2023-05-21T09:28:41.505Z,236.62
2023-05-21T09:29:41.581Z,234.43
2023-05-21T09:30:41.733Z,235.60
2023-05-21T09:31:41.499Z,236.11
2023-05-21T09:32:41.493Z,234.93
2023-05-21T09:33:41.465Z,232.76
2023-05-21T09:34:41.420Z,232.43
2023-05-21T09:35:41.393Z,233.43
2023-05-21T09:36:41.425Z,233.59
2023-05-21T09:37:41.400Z,233.59
2023-05-21T09:38:41.378Z,234.09
2023-05-21T09:39:41.350Z,236.11
2023-05-21T09:40:41.351Z,238.34
2023-05-21T09:41:41.699Z,239.21
2023-05-21T09:42:40.652Z,240.62
2023-05-21T09:43:41.326Z,242.21
2023-05-21T09:44:41.266Z,242.93
2023-05-21T09:45:41.460Z,245.66
2023-05-21T09:46:41.794Z,246.95
2023-05-21T09:47:41.267Z,248.64
2023-05-21T09:48:41.231Z,250.54
2023-05-21T09:49:41.235Z,246.77
2023-05-21T09:50:41.390Z,251.88
2023-05-21T09:51:41.185Z,250.54
2023-05-21T09:52:42.292Z,252.27
2023-05-21T09:53:41.169Z,252.46
2023-05-21T09:54:41.171Z,253.24
2023-05-21T09:55:41.191Z,257.42
2023-05-21T09:56:41.134Z,259.45
2023-05-21T09:57:41.154Z,256.61
2023-05-21T09:58:41.106Z,260.90
2023-05-21T09:59:41.129Z,257.82
2023-05-21T10:00:41.113Z,257.42
2023-05-21T10:01:41.206Z,253.44
2023-05-21T10:02:41.109Z,256.41
2023-05-21T10:03:41.095Z,250.54
2023-05-21T10:04:41.091Z,248.26
2023-05-21T10:05:41.017Z,249.39
2023-05-21T10:06:41.019Z,246.58
2023-05-21T10:07:40.989Z,248.07
2023-05-21T10:08:40.999Z,246.95
2023-05-21T10:09:40.961Z,246.21
2023-05-21T10:10:40.457Z,242.93
2023-05-21T10:11:40.951Z,246.03
2023-05-21T10:12:40.917Z,246.21
2023-05-21T10:13:40.914Z,246.21
2023-05-21T10:14:40.893Z,246.95
2023-05-21T10:15:40.897Z,244.93
2023-05-21T10:16:40.962Z,246.77
2023-05-21T10:17:40.898Z,248.07
2023-05-21T10:18:40.865Z,249.39
2023-05-21T10:19:40.855Z,249.02
2023-05-21T10:20:40.837Z,251.30
2023-05-21T10:21:40.818Z,254.42
2023-05-21T10:22:40.797Z,255.21
2023-05-21T10:23:40.791Z,256.41
2023-05-21T10:24:38.942Z,258.23
2023-05-21T10:25:40.779Z,264.47
2023-05-21T10:26:40.836Z,264.47
2023-05-21T10:27:40.730Z,261.52
2023-05-21T10:28:39.062Z,264.90
2023-05-21T10:29:40.762Z,262.15
2023-05-21T10:30:39.526Z,262.15
2023-05-21T10:31:40.785Z,260.90
2023-05-21T10:32:40.860Z,261.94
2023-05-21T10:33:40.652Z,269.69
2023-05-21T10:34:40.661Z,269.91
2023-05-21T10:35:40.647Z,276.97
2023-05-21T10:36:40.609Z,280.05
2023-05-21T10:37:40.609Z,284.66
2023-05-21T10:38:40.586Z,287.66
2023-05-21T10:39:40.632Z,286.90
2023-05-21T10:40:40.583Z,289.94
2023-05-21T10:41:40.552Z,293.84
2023-05-21T10:42:40.571Z,297.30
2023-05-21T10:43:40.555Z,299.20
2023-05-21T10:44:40.528Z,302.23
2023-05-21T10:45:40.570Z,301.67
2023-05-21T10:46:40.491Z,302.23
2023-05-21T10:47:40.537Z,307.33
2023-05-21T10:48:40.498Z,305.61
2023-05-21T10:49:40.477Z,309.94
2023-05-21T10:50:40.489Z,314.39
2023-05-21T10:51:40.436Z,317.74
2023-05-21T10:52:40.446Z,319.29
2023-05-21T10:53:40.417Z,318.05
2023-05-21T10:54:40.398Z,321.16
2023-05-21T10:55:40.411Z,322.74
2023-05-21T10:56:40.378Z,324.02
2023-05-21T10:57:40.378Z,324.02
2023-05-21T10:58:40.368Z,321.79
2023-05-21T10:59:40.353Z,323.38
2023-05-21T11:00:40.341Z,325.30
2023-05-21T11:01:40.421Z,325.62
2023-05-21T11:02:40.408Z,329.22
2023-05-21T11:03:39.473Z,337.34
2023-05-21T11:04:40.310Z,338.04
2023-05-21T11:05:40.462Z,343.70
2023-05-21T11:06:40.279Z,345.51
2023-05-21T11:07:40.263Z,344.42
2023-05-21T11:08:40.242Z,346.61
2023-05-21T11:09:40.220Z,346.97
2023-05-21T11:10:40.296Z,347.34
2023-05-21T11:11:40.182Z,348.45
2023-05-21T11:12:40.180Z,349.19
2023-05-21T11:13:40.165Z,351.81
2023-05-21T11:14:40.329Z,351.43
2023-05-21T11:15:39.638Z,349.93
2023-05-21T11:16:40.202Z,351.43
2023-05-21T11:17:40.165Z,356.01
2023-05-21T11:18:40.090Z,356.40
2023-05-21T11:19:40.195Z,361.50
2023-05-21T11:20:40.067Z,364.71
2023-05-21T11:21:40.075Z,368.40
2023-05-21T11:22:40.061Z,369.64
2023-05-21T11:23:40.039Z,368.40
2023-05-21T11:24:40.017Z,375.57
2023-05-21T11:25:39.998Z,384.56
2023-05-21T11:26:39.999Z,389.73
2023-05-21T11:27:40.055Z,388.37
2023-05-21T11:28:39.964Z,386.57
2023-05-21T11:29:39.963Z,387.92
2023-05-21T11:30:41.115Z,388.60
2023-05-21T11:31:40.454Z,388.82
2023-05-21T11:32:40.032Z,390.88
2023-05-21T11:33:39.899Z,389.51
2023-05-21T11:34:39.900Z,389.73
2023-05-21T11:35:39.883Z,390.42
2023-05-21T11:36:39.851Z,392.72
2023-05-21T11:37:39.839Z,391.79
2023-05-21T11:38:39.843Z,395.28
2023-05-21T11:39:40.101Z,395.28
2023-05-21T11:40:38.612Z,396.92
2023-05-21T11:41:39.805Z,398.58
2023-05-21T11:42:39.787Z,400.02
2023-05-21T11:43:39.762Z,400.50
2023-05-21T11:44:39.752Z,403.16
2023-05-21T11:45:39.744Z,407.60
2023-05-21T11:46:39.775Z,405.62
2023-05-21T11:47:39.775Z,410.36
2023-05-21T11:48:39.704Z,408.85
2023-05-21T11:49:39.705Z,410.86
2023-05-21T11:50:39.892Z,407.85
2023-05-21T11:51:39.667Z,406.11
2023-05-21T11:52:39.642Z,403.16
2023-05-21T11:53:39.632Z,399.78
2023-05-21T11:54:39.641Z,404.63
2023-05-21T11:55:39.641Z,404.88
2023-05-21T11:56:39.600Z,405.12
2023-05-21T11:57:39.566Z,405.86
2023-05-21T11:58:39.563Z,404.88
2023-05-21T11:59:39.566Z,406.85
2023-05-21T12:00:39.531Z,403.41
2023-05-21T12:01:39.559Z,401.95
2023-05-21T12:02:39.775Z,405.37
2023-05-21T12:03:39.718Z,409.60
2023-05-21T12:04:39.498Z,406.11
2023-05-21T12:05:37.663Z,407.35
2023-05-21T12:06:39.461Z,405.62
2023-05-21T12:07:39.459Z,408.10
2023-05-21T12:08:39.440Z,407.35
2023-05-21T12:09:39.463Z,402.68
2023-05-21T12:10:39.415Z,401.71
2023-05-21T12:11:39.395Z,402.19
2023-05-21T12:12:53.357Z,398.58
2023-05-21T12:13:40.386Z,393.88
2023-05-21T12:14:39.353Z,392.02
2023-05-21T12:15:39.343Z,395.51
2023-05-21T12:16:39.397Z,386.57
2023-05-21T12:17:39.373Z,388.37
2023-05-21T12:18:39.324Z,390.65
2023-05-21T12:19:39.285Z,391.33
2023-05-21T12:20:39.305Z,392.26
2023-05-21T12:21:39.266Z,389.96
2023-05-21T12:22:39.278Z,392.02
2023-05-21T12:23:39.259Z,388.37
2023-05-21T12:24:39.226Z,385.23
2023-05-21T12:25:39.231Z,386.12
2023-05-21T12:26:39.200Z,382.14
2023-05-21T12:27:38.812Z,375.14
2023-05-21T12:28:39.190Z,381.48